Time;durP1;ratioP1;P1;durP2;ratioP2;P2;SDS_P1;SDS_P2;PMS_P1;PMS_P2;Temp;Humidity;BMP_temperature;BMP_pressure;BME280_temperature;BME280_humidity;BME280_pressure;Samples;Min_cycle;Max_cycle;Signal;HPM_P1;HPM_P2
2022/04/11 00:01:00;;;;;;;3.25;0.63;;;4.50;99.90;;;2.77;100.00;101256.91;4886684;28;20034;-80
2022/04/11 00:03:35;;;;;;;4.50;1.00;;;4.40;99.90;;;2.76;100.00;101257.78;4871322;28;20499;-83
2022/04/11 00:06:01;;;;;;;4.22;0.75;;;4.40;99.90;;;2.86;100.00;101254.25;4886141;28;20065;-79
2022/04/11 00:08:27;;;;;;;4.35;1.02;;;4.40;99.90;;;2.87;100.00;101250.75;4929247;28;20038;-79
2022/04/11 00:11:02;;;;;;;8.15;1.30;;;4.40;99.90;;;2.92;100.00;101251.63;4914793;28;20027;-81
2022/04/11 00:13:34;;;;;;;6.40;1.42;;;4.50;99.90;;;2.97;100.00;101254.19;4913308;28;20043;-79
2022/04/11 00:16:02;;;;;;;13.05;2.00;;;4.50;99.90;;;2.99;100.00;101250.69;4901489;28;20030;-80
2022/04/11 00:18:28;;;;;;;10.43;2.03;;;4.50;99.90;;;3.03;100.00;101249.78;4907901;28;21087;-79
2022/04/11 00:20:54;;;;;;;14.73;2.53;;;4.60;99.90;;;3.08;100.00;101249.75;4869116;28;20047;-79
2022/04/11 00:23:20;;;;;;;11.20;2.30;;;4.50;99.90;;;3.04;100.00;101254.09;4927976;28;20023;-81
2022/04/11 00:25:46;;;;;;;13.57;1.95;;;4.50;99.90;;;2.95;100.00;101248.13;4888021;28;20031;-79
2022/04/11 00:28:12;;;;;;;12.25;1.85;;;4.40;99.90;;;2.87;100.00;101250.75;4899753;28;20035;-79
2022/04/11 00:30:45;;;;;;;13.30;2.08;;;4.40;99.90;;;2.79;100.00;101258.63;4910250;28;20211;-81
2022/04/11 00:33:11;;;;;;;11.60;2.20;;;4.30;99.90;;;2.73;100.00;101261.25;4938832;28;20026;-82
2022/04/11 00:35:37;;;;;;;11.38;1.70;;;4.30;99.90;;;2.65;100.00;101256.09;4905974;28;20113;-80
2022/04/11 00:38:03;;;;;;;9.13;2.30;;;4.20;99.90;;;2.62;100.00;101263.91;4904690;28;20026;-82
2022/04/11 00:40:38;;;;;;;12.90;1.85;;;4.20;99.90;;;2.61;100.00;101263.91;4931783;28;20042;-81
2022/04/11 00:43:04;;;;;;;11.40;1.98;;;4.10;99.90;;;2.55;100.00;101254.44;4887953;28;20041;-79
2022/04/11 00:45:31;;;;;;;16.10;2.15;;;;;;;2.53;100.00;101261.38;4886482;28;20071;-80
2022/04/11 00:47:59;;;;;;;12.80;1.75;;;4.10;99.90;;;2.52;100.00;101263.97;4915685;28;20494;-82
2022/04/11 00:50:26;;;;;;;9.70;2.38;;;4.10;99.90;;;2.47;100.00;101267.44;4879992;28;20026;-82
2022/04/11 00:52:56;;;;;;;10.93;1.67;;;4.00;99.90;;;2.49;100.00;101270.06;4916877;28;20117;-82
2022/04/11 00:55:24;;;;;;;13.85;2.10;;;4.10;99.90;;;2.48;100.00;101273.50;4917243;23;20153;-79
2022/04/11 00:57:59;;;;;;;8.18;2.03;;;4.00;99.90;;;2.47;100.00;101277.84;4951537;28;20362;-79
2022/04/11 01:00:26;;;;;;;4.70;1.55;;;4.00;99.90;;;2.45;100.00;101270.94;4935688;28;20032;-79
2022/04/11 01:05:17;;;;;;;9.70;2.05;;;4.00;99.90;;;2.41;100.00;101283.06;4945250;28;20064;-79
2022/04/11 01:07:51;;;;;;;15.13;2.20;;;4.00;99.90;;;2.40;100.00;101281.34;4913567;28;20035;-81
2022/04/11 01:10:17;;;;;;;11.35;2.28;;;3.90;99.90;;;2.42;100.00;101289.16;4931059;28;20030;-79
2022/04/11 01:12:43;;;;;;;15.25;2.42;;;4.00;99.90;;;2.45;100.00;101290.00;4966247;28;20041;-79
2022/04/11 01:15:15;;;;;;;13.07;2.08;;;4.00;99.90;;;2.53;100.00;101292.56;4936217;23;20054;-79
2022/04/11 01:17:41;;;;;;;11.93;2.50;;;4.10;99.90;;;2.59;100.00;101297.75;4921141;28;20039;-80
2022/04/11 01:20:16;;;;;;;8.65;1.92;;;4.10;99.90;;;2.62;100.00;101295.13;4910100;28;20035;-80
2022/04/11 01:22:43;;;;;;;8.13;1.40;;;4.10;99.90;;;2.60;100.00;101289.06;4981295;28;20045;-81
2022/04/11 01:25:14;;;;;;;7.13;1.45;;;4.10;99.90;;;2.66;100.00;101295.97;5006807;28;20038;-80
2022/04/11 01:27:49;;;;;;;7.22;1.98;;;4.20;99.90;;;2.71;100.00;101295.94;4928635;28;20046;-81
2022/04/11 01:30:18;;;;;;;8.13;1.58;;;4.20;99.90;;;2.78;100.00;101289.84;4915352;28;20114;-80
2022/04/11 01:32:44;;;;;;;9.73;2.03;;;4.30;99.90;;;2.83;100.00;101285.47;4893091;28;20066;-79
2022/04/11 01:35:39;;;;;;;8.32;1.90;;;4.30;99.90;;;2.94;100.00;101288.88;4916506;23;20543;-83
2022/04/11 01:38:08;;;;;;;7.85;2.38;;;4.40;99.90;;;3.00;100.00;101295.78;4888990;28;20081;-79
2022/04/11 01:40:36;;;;;;;8.57;1.75;;;4.50;99.90;;;3.07;100.00;101295.72;4902887;28;20023;-81
2022/04/11 01:43:02;;;;;;;7.80;2.10;;;4.60;99.90;;;3.17;100.00;101295.66;4894954;28;20117;-79
2022/04/11 01:45:29;;;;;;;8.32;1.95;;;4.60;99.90;;;3.25;100.00;101288.69;4909082;28;20028;-79
2022/04/11 01:47:55;;;;;;;8.50;1.90;;;4.70;99.90;;;3.23;100.00;101291.28;4917918;28;20039;-79
2022/04/11 01:50:26;;;;;;;14.95;2.38;;;4.70;99.90;;;3.21;100.00;101295.63;4913388;28;20050;-79
2022/04/11 01:52:52;;;;;;;8.65;1.77;;;4.60;99.90;;;3.17;100.00;101298.25;4859635;29;20069;-79
2022/04/11 01:55:18;;;;;;;6.18;1.60;;;4.60;99.90;;;3.10;100.00;101289.63;4897817;28;20047;-80
2022/04/11 01:57:44;;;;;;;8.02;1.70;;;4.50;99.90;;;3.01;100.00;101287.97;4889317;28;20023;-79
2022/04/11 02:00:11;;;;;;;6.65;1.77;;;4.50;99.90;;;2.94;100.00;101294.09;4894473;28;20042;-79
2022/04/11 02:02:37;;;;;;;11.02;1.73;;;4.40;99.90;;;2.85;100.00;101296.72;4871234;28;20110;-80
2022/04/11 02:05:12;;;;;;;6.68;1.50;;;4.40;99.90;;;2.77;100.00;101290.72;4864977;29;20031;-79
2022/04/11 02:07:38;;;;;;;9.25;1.45;;;4.30;99.90;;;2.69;100.00;101290.75;4874677;28;20039;-81
2022/04/11 02:10:05;;;;;;;11.18;2.20;;;4.20;99.90;;;2.60;100.00;101291.66;4840521;28;20082;-81
2022/04/11 02:12:34;;;;;;;7.15;1.70;;;4.10;99.90;;;2.56;100.00;101296.88;4862139;28;20053;-81
2022/04/11 02:15:01;;;;;;;13.50;2.08;;;4.10;99.90;;;2.53;100.00;101296.88;4855568;28;20091;-79
2022/04/11 02:17:27;;;;;;;6.88;1.85;;;4.10;99.90;;;2.51;100.00;101296.91;4881015;28;20085;-80
2022/04/11 02:19:52;;;;;;;8.85;1.67;;;4.10;99.90;;;2.52;100.00;101302.97;4872996;29;20047;-79
2022/04/11 02:22:18;;;;;;;8.55;1.73;;;4.00;99.90;;;2.49;100.00;101306.44;4889854;28;20027;-79
2022/04/11 02:24:44;;;;;;;7.85;1.70;;;4.00;99.90;;;2.43;100.00;101299.53;4873921;28;20107;-79
2022/04/11 02:27:15;;;;;;;6.30;1.60;;;4.00;99.90;;;2.36;100.00;101299.56;4899487;28;20130;-81
2022/04/11 02:29:41;;;;;;;10.07;1.65;;;3.90;99.90;;;2.32;100.00;101305.66;4891836;28;20588;-79
2022/04/11 02:32:08;;;;;;;11.38;2.20;;;3.90;99.90;;;2.35;100.00;101308.22;4888198;28;20031;-81
2022/04/11 02:34:34;;;;;;;5.13;1.40;;;3.90;99.90;;;2.36;100.00;101310.81;4880625;28;20031;-81
2022/04/11 02:37:00;;;;;;;13.50;2.10;;;3.90;99.90;;;2.42;100.00;101299.56;4898098;28;20031;-79
2022/04/11 02:39:28;;;;;;;8.63;1.58;;;4.00;99.90;;;2.51;100.00;101306.44;4879417;28;20063;-79
2022/04/11 02:41:57;;;;;;;12.68;2.00;;;4.00;99.90;;;2.58;100.00;101305.53;4858893;28;20142;-79
2022/04/11 02:44:22;;;;;;;12.95;2.40;;;4.10;99.90;;;2.69;100.00;101300.28;4882009;28;20030;-79
2022/04/11 02:46:51;;;;;;;10.43;2.08;;;4.10;99.90;;;2.77;100.00;101303.72;4856346;28;20042;-80
2022/04/11 02:49:20;;;;;;;11.60;2.28;;;4.20;99.90;;;2.80;100.00;101298.50;4870424;28;20024;-79
2022/04/11 02:51:48;;;;;;;8.90;1.83;;;4.20;99.90;;;2.80;100.00;101303.69;4854365;28;20039;-79
2022/04/11 02:54:15;;;;;;;8.70;1.98;;;4.30;99.90;;;2.81;100.00;101302.84;4890627;28;20043;-80
2022/04/11 02:56:41;;;;;;;10.50;2.10;;;4.30;99.90;;;2.84;100.00;101308.00;4874770;28;20127;-80
2022/04/11 02:59:07;;;;;;;9.32;1.75;;;4.30;99.90;;;2.84;100.00;101302.81;4873385;28;20488;-79
2022/04/11 03:01:33;;;;;;;15.13;2.47;;;4.30;99.90;;;2.83;100.00;101308.88;4858939;28;20031;-79
2022/04/11 03:04:04;;;;;;;14.10;2.13;;;4.30;99.90;;;2.84;100.00;101314.06;4863684;28;20031;-80
2022/04/11 03:06:30;;;;;;;14.50;2.13;;;4.30;99.90;;;2.85;100.00;101315.81;4874586;28;21226;-79
2022/04/11 03:08:56;;;;;;;8.30;2.10;;;4.30;99.90;;;2.90;100.00;101312.34;4869550;28;20063;-79
2022/04/11 03:11:21;;;;;;;5.55;1.75;;;4.40;99.90;;;2.93;100.00;101304.50;4910907;28;20038;-79
2022/04/11 03:13:48;;;;;;;7.07;2.00;;;4.40;99.90;;;2.98;100.00;101308.81;4918812;28;20546;-79
2022/04/11 03:16:16;;;;;;;10.05;2.28;;;4.50;99.90;;;3.00;100.00;101304.47;4907411;28;20079;-78
2022/04/11 03:18:42;;;;;;;7.53;2.38;;;4.50;99.90;;;3.03;100.00;101304.44;4842256;28;20047;-81
2022/04/11 03:21:08;;;;;;;5.05;1.85;;;4.50;99.90;;;3.03;100.00;101312.22;4880778;28;20023;-80
2022/04/11 03:23:34;;;;;;;9.00;2.33;;;4.50;99.90;;;3.01;100.00;101310.53;4825498;28;20037;-79
2022/04/11 03:26:00;;;;;;;8.23;2.00;;;4.50;99.90;;;3.01;100.00;101316.59;4886276;28;20042;-79
2022/04/11 03:28:26;;;;;;;13.77;2.63;;;4.50;99.90;;;2.98;100.00;101305.31;4893596;28;20035;-79
2022/04/11 03:30:52;;;;;;;8.15;2.35;;;4.50;99.90;;;2.98;100.00;101321.81;4836113;28;20516;-81
2022/04/11 03:33:27;;;;;;;16.25;2.83;;;4.50;99.90;;;3.03;100.00;101319.19;4918932;28;20023;-79
2022/04/11 03:35:53;;;;;;;6.07;2.00;;;4.50;99.90;;;3.05;100.00;101331.31;4909463;28;20140;-79
2022/04/11 03:38:19;;;;;;;10.73;2.53;;;4.80;99.90;;;3.07;100.00;101332.16;4905938;28;20047;-79
2022/04/11 03:40:48;;;;;;;11.48;2.50;;;4.60;99.90;;;3.14;100.00;101332.13;4874715;28;20745;-79
2022/04/11 03:43:15;;;;;;;9.05;2.30;;;4.60;99.90;;;3.13;100.00;101327.78;4913359;28;20524;-80
2022/04/11 03:45:41;;;;;;;8.27;2.40;;;4.60;99.90;;;3.17;100.00;101339.91;4865548;28;20226;-79
2022/04/11 03:48:07;;;;;;;10.02;2.63;;;4.60;99.90;;;3.16;100.00;101335.59;4893209;28;20102;-80
2022/04/11 03:50:33;;;;;;;11.10;2.80;;;4.60;99.90;;;3.19;100.00;101332.94;4867983;29;20048;-79
2022/04/11 03:52:59;;;;;;;9.55;2.80;;;4.60;99.90;;;3.19;100.00;101330.34;4858464;28;20034;-79
2022/04/11 03:55:34;;;;;;;11.68;2.22;;;4.60;99.90;;;3.15;100.00;101329.50;4885978;28;20532;-79
2022/04/11 03:58:00;;;;;;;5.03;2.88;;;4.60;99.90;;;3.16;100.00;101326.03;4882607;29;20054;-79
2022/04/11 04:00:26;;;;;;;9.27;2.25;;;4.60;99.90;;;3.16;100.00;101327.78;4874696;28;20230;-80
2022/04/11 04:02:52;;;;;;;6.25;2.50;;;4.60;99.90;;;3.16;100.00;101319.97;4877897;28;20114;-80
2022/04/11 04:05:24;;;;;;;8.20;2.40;;;4.60;99.90;;;3.13;100.00;101326.03;4840984;28;20693;-81
2022/04/11 04:07:50;;;;;;;10.77;2.47;;;4.60;99.90;;;3.12;100.00;101329.53;4883067;28;20039;-79
2022/04/11 04:10:15;;;;;;;7.45;2.38;;;4.50;99.90;;;3.11;100.00;101326.94;4895875;28;20142;-79
2022/04/11 04:12:41;;;;;;;11.02;2.35;;;4.60;99.90;;;3.11;100.00;101319.13;4906245;29;20036;-79
2022/04/11 04:15:08;;;;;;;6.53;2.40;;;4.60;99.90;;;3.06;100.00;101333.03;4945835;23;20043;-78
2022/04/11 04:17:41;;;;;;;6.72;2.05;;;4.50;99.90;;;3.05;100.00;101333.06;4880138;28;20031;-78
2022/04/11 04:20:08;;;;;;;5.93;2.20;;;4.50;99.90;;;3.04;100.00;101331.31;4868217;28;20088;-79
2022/04/11 04:22:35;;;;;;;14.73;3.13;;;4.60;99.90;;;3.14;100.00;101333.00;4913695;28;20032;-80
2022/04/11 04:25:08;;;;;;;7.22;3.25;;;4.60;99.90;;;3.17;100.00;101335.56;4886545;28;20020;-79
2022/04/11 04:27:34;;;;;;;9.93;3.83;;;4.70;99.90;;;3.28;100.00;101336.38;4932092;28;20044;-80
2022/04/11 04:30:00;;;;;;;8.07;3.30;;;4.70;99.90;;;3.33;100.00;101343.28;4910646;28;20398;-79
2022/04/11 04:32:28;;;;;;;8.32;2.80;;;4.70;99.90;;;3.27;100.00;101349.41;4898318;28;20035;-79
2022/04/11 04:34:59;;;;;;;11.45;2.97;;;4.70;99.90;;;3.21;100.00;101341.63;4869578;28;20038;-79
2022/04/11 04:37:24;;;;;;;7.97;2.92;;;4.70;99.90;;;3.14;100.00;101340.78;4880939;28;20026;-79
2022/04/11 04:39:50;;;;;;;5.40;2.53;;;4.60;99.90;;;3.13;100.00;101341.66;4902595;28;20088;-79
2022/04/11 04:42:26;;;;;;;13.00;3.03;;;4.60;99.90;;;3.17;100.00;101345.09;4890980;28;20062;-80
2022/04/11 04:44:54;;;;;;;7.07;2.90;;;4.60;99.90;;;3.21;100.00;101337.28;4918309;28;20057;-80
2022/04/11 04:47:20;;;;;;;9.95;3.72;;;4.80;99.90;;;3.49;100.00;101344.91;4914996;28;20069;-80
2022/04/11 04:49:47;;;;;;;13.95;3.67;;;4.90;99.90;;;3.75;100.00;101349.91;4901505;28;20593;-80
2022/04/11 04:52:19;;;;;;;5.72;3.05;;;5.10;99.90;;;3.92;100.00;101343.69;4900105;28;20060;-81
2022/04/11 04:54:45;;;;;;;4.97;2.78;;;5.20;99.90;;;3.98;100.00;101349.69;4878210;28;20036;-80
2022/04/11 04:57:11;;;;;;;5.32;1.48;;;5.20;99.90;;;3.66;100.00;101344.78;4909846;28;20031;-81
2022/04/11 04:59:37;;;;;;;3.83;0.98;;;5.00;99.90;;;3.46;100.00;101343.19;4883039;28;20041;-81
2022/04/11 05:02:03;;;;;;;9.20;1.20;;;5.00;99.90;;;3.53;100.00;101340.53;4891256;28;20481;-80
2022/04/11 05:04:35;;;;;;;4.65;1.10;;;5.00;99.90;;;3.55;100.00;101344.00;4885220;28;20039;-80
2022/04/11 05:07:01;;;;;;;6.68;1.00;;;5.00;99.90;;;3.55;100.00;101342.25;4875269;28;20055;-81
2022/04/11 05:09:27;;;;;;;11.23;1.65;;;5.00;99.90;;;3.65;100.00;101343.03;4911555;28;20026;-80
2022/04/11 05:11:53;;;;;;;7.13;1.65;;;5.10;99.90;;;3.76;100.00;101340.31;4876139;28;20057;-80
2022/04/11 05:14:19;;;;;;;7.28;1.10;;;5.10;99.90;;;3.79;99.58;101342.94;4891384;28;20547;-80
2022/04/11 05:16:47;;;;;;;4.68;0.85;;;5.10;99.90;;;3.81;99.01;101338.56;4877556;28;20157;-80
2022/04/11 05:19:17;;;;;;;5.93;0.95;;;5.10;99.90;;;3.77;97.87;101347.28;4890100;28;20058;-79
2022/04/11 05:21:43;;;;;;;15.55;1.48;;;5.10;99.90;;;3.82;97.14;101345.50;4902355;28;20034;-79
2022/04/11 05:24:09;;;;;;;12.60;1.10;;;5.10;99.90;;;3.82;96.53;101359.41;4870064;28;20102;-80
2022/04/11 05:26:35;;;;;;;9.30;1.15;;;5.10;99.90;;;3.80;96.18;101361.16;4894005;28;20407;-79
2022/04/11 05:29:04;;;;;;;3.45;0.60;;;5.20;99.90;;;3.87;95.44;101357.59;4921641;28;22944;-79
2022/04/11 05:31:32;;;;;;;5.80;0.65;;;5.30;99.90;;;4.75;92.87;101364.50;4924559;28;20037;-81
2022/04/11 05:33:59;;;;;;;9.68;1.15;;;5.50;99.90;;;4.70;91.41;101368.91;4903500;28;20063;-80
2022/04/11 05:36:25;;;;;;;5.15;1.45;;;5.90;99.90;;;7.48;87.47;101379.75;4899514;28;20035;-79
2022/04/11 05:38:51;;;;;;;3.05;1.20;;;7.20;99.90;;;11.12;71.80;101369.47;4923067;28;20038;-81
2022/04/11 05:41:19;;;;;;;4.53;1.33;;;9.20;99.90;;;16.50;54.98;101364.88;4898060;28;20027;-80
2022/04/11 05:43:48;;;;;;;7.57;1.52;;;11.20;99.90;;;17.97;48.79;101380.34;4898174;28;20050;-81
2022/04/11 05:46:14;;;;;;;7.05;1.70;;;12.30;99.90;;;15.67;50.68;101383.03;4902564;28;20137;-81
2022/04/11 05:48:40;;;;;;;6.43;1.65;;;12.70;99.90;;;14.08;53.58;101390.72;4911007;28;20095;-77
2022/04/11 05:51:07;;;;;;;5.82;1.70;;;12.50;99.90;;;12.90;56.95;101391.06;4918684;28;20022;-81
2022/04/11 05:53:40;;;;;;;7.15;1.70;;;12.30;99.90;;;12.77;58.44;101400.47;4892258;28;20639;-81
2022/04/11 05:56:06;;;;;;;5.95;1.55;;;12.10;99.90;;;13.20;57.48;101414.38;4904869;28;20039;-82
2022/04/11 05:58:32;;;;;;;6.65;2.33;;;12.20;99.90;;;14.98;56.30;101424.03;4892594;28;20030;-78
2022/04/11 06:00:57;;;;;;;6.40;1.92;;;12.50;99.90;;;15.63;53.28;101431.94;4911891;28;20521;-78
2022/04/11 06:03:23;;;;;;;9.55;2.42;;;12.10;99.90;;;18.03;47.71;101433.22;4925735;28;20046;-79
2022/04/11 06:05:52;;;;;;;7.00;2.30;;;14.00;99.90;;;17.72;47.05;101445.88;4876035;28;20069;-81
2022/04/11 06:08:18;;;;;;;14.45;2.97;;;14.60;99.90;;;16.99;47.94;101441.63;4911234;28;20047;-78
2022/04/11 06:10:44;;;;;;;9.68;2.95;;;14.60;99.90;;;15.10;50.50;101449.03;4897420;28;20047;-78
2022/04/11 06:13:10;;;;;;;5.10;2.25;;;14.10;99.90;;;13.27;54.97;101456.31;4892745;28;20035;-78
2022/04/11 06:15:36;;;;;;;13.15;3.22;;;13.40;99.90;;;12.74;57.64;101459.59;4907875;28;20086;-78
2022/04/11 06:18:02;;;;;;;10.18;3.22;;;12.80;99.90;;;11.82;59.21;101456.38;4919334;28;20029;-81
2022/04/11 06:20:28;;;;;;;10.75;3.35;;;12.30;99.90;;;11.15;62.16;101459.00;4912488;28;20039;-78
2022/04/11 06:22:58;;;;;;;11.68;4.07;;;11.80;99.90;;;10.75;63.62;101461.28;4895235;28;20780;-78
2022/04/11 06:25:24;;;;;;;15.32;3.33;;;11.30;99.90;;;9.93;65.85;101468.41;4915640;28;20074;-79
2022/04/11 06:27:50;;;;;;;10.57;4.00;;;10.90;99.90;;;9.51;67.18;101474.09;4935109;28;20598;-81
2022/04/11 06:30:16;;;;;;;15.43;4.10;;;10.50;99.90;;;9.09;69.27;101465.72;4935041;28;20053;-80
2022/04/11 06:32:42;;;;;;;9.88;3.75;;;10.20;99.90;;;9.22;70.74;101477.59;4920992;28;20122;-77
2022/04/11 06:35:08;;;;;;;10.40;3.20;;;10.10;99.90;;;9.11;70.76;101470.00;4946889;28;20104;-78
2022/04/11 06:37:42;;;;;;;11.10;3.72;;;9.90;99.90;;;8.95;71.32;101472.22;4893053;28;20058;-81
2022/04/11 06:40:09;;;;;;;8.60;2.78;;;9.80;99.90;;;9.13;71.50;101468.19;4899064;28;20034;-78
2022/04/11 06:42:35;;;;;;;6.82;1.80;;;9.80;99.90;;;8.66;72.17;101466.91;4918849;28;20537;-77
2022/04/11 06:45:08;;;;;;;12.50;1.75;;;9.50;99.90;;;8.06;72.32;101461.41;4931468;28;20030;-81
2022/04/11 06:47:34;;;;;;;11.93;2.25;;;9.20;99.90;;;7.68;72.88;101471.00;4888108;28;20060;-76
2022/04/11 06:50:00;;;;;;;7.13;1.38;;;9.00;99.90;;;7.67;73.02;101476.31;4909357;28;20072;-79
2022/04/11 06:52:26;;;;;;;6.30;1.30;;;8.70;99.90;;;7.30;73.02;101474.47;4905663;28;20034;-80
2022/04/11 06:54:53;;;;;;;5.47;1.35;;;8.50;99.90;;;7.09;74.71;101476.66;4918174;28;20033;-78
2022/04/11 06:57:19;;;;;;;5.22;1.15;;;8.20;99.90;;;6.60;76.52;101474.97;4891368;28;20041;-79
2022/04/11 06:59:47;;;;;;;5.15;1.50;;;8.00;99.90;;;6.64;77.57;101467.94;4921775;28;20513;-79
2022/04/11 07:02:13;;;;;;;3.97;1.60;;;8.90;99.90;;;13.05;65.33;101467.03;4901959;28;20565;-79
2022/04/11 07:04:38;;;;;;;3.95;1.52;;;10.50;99.90;;;12.80;57.50;101467.25;4905846;28;20034;-80
2022/04/11 07:07:04;;;;;;;8.02;1.90;;;11.70;99.90;;;13.16;58.00;101476.28;4899565;28;20061;-77
2022/04/11 07:09:31;;;;;;;6.60;1.90;;;12.20;99.90;;;12.61;57.51;101476.91;4890364;28;20125;-78
2022/04/11 07:12:03;;;;;;;8.48;2.15;;;12.90;99.90;;;15.17;52.53;101476.94;4862219;28;20426;-78
2022/04/11 07:14:29;;;;;;;10.07;2.50;;;13.40;99.90;;;13.61;54.30;101477.75;4913645;28;20046;-78
2022/04/11 07:16:56;;;;;;;7.35;2.22;;;13.70;99.90;;;15.64;52.92;101478.78;4893163;28;20539;-77
2022/04/11 07:19:22;;;;;;;8.35;2.50;;;14.70;99.90;;;18.51;47.23;101486.00;4869634;28;20042;-80
2022/04/11 07:21:49;;;;;;;8.23;2.25;;;16.50;99.90;;;20.77;42.27;101505.28;4934999;28;20521;-77
2022/04/11 07:24:19;;;;;;;8.52;2.10;;;18.20;99.90;;;21.44;40.58;101525.09;4908779;28;20049;-78
2022/04/11 07:26:45;;;;;;;9.00;2.40;;;19.00;99.90;;;19.47;42.51;101524.66;4904247;28;20054;-77
2022/04/11 07:29:12;;;;;;;8.50;2.42;;;18.90;99.90;;;18.09;45.17;101531.44;4899440;28;20042;-77
2022/04/11 07:31:38;;;;;;;8.88;2.78;;;18.10;99.90;;;16.30;47.99;101524.66;4862653;28;20030;-80
2022/04/11 07:34:04;;;;;;;7.03;2.17;;;16.70;99.90;;;14.25;51.13;101521.41;4863842;28;20578;-77
2022/04/11 07:36:30;;;;;;;10.05;2.53;;;15.50;99.90;;;13.11;54.21;101511.72;4901337;28;20054;-77
2022/04/11 07:38:59;;;;;;;6.40;2.00;;;;;;;11.82;57.11;101527.63;4893786;28;20490;-76
2022/04/11 07:41:26;;;;;;;6.40;1.80;;;13.10;99.90;;;10.75;58.62;101521.88;4915993;28;21034;-76
2022/04/11 07:43:56;;;;;;;11.07;2.85;;;12.20;99.90;;;10.01;61.03;101532.16;4901021;28;20121;-77
2022/04/11 07:46:28;;;;;;;9.82;2.80;;;11.50;99.90;;;9.48;63.70;101539.06;4914394;28;20530;-77
2022/04/11 07:48:54;;;;;;;10.95;2.90;;;11.00;99.90;;;9.14;65.84;101538.25;4878895;28;20114;-77
2022/04/11 07:51:20;;;;;;;11.07;2.80;;;10.60;99.90;;;9.06;66.75;101534.13;4905073;28;20169;-79
2022/04/11 07:53:46;;;;;;;8.57;2.13;;;10.70;99.90;;;11.12;64.17;101530.25;4889454;28;20447;-77
2022/04/11 07:56:12;;;;;;;10.85;2.58;;;11.90;99.90;;;13.93;56.47;101531.75;4895539;28;20055;-79
2022/04/11 07:58:43;;;;;;;8.45;2.10;;;14.00;99.90;;;16.75;50.58;101530.88;4895294;28;20031;-76
2022/04/11 08:01:16;;;;;;;7.88;2.30;;;15.60;99.90;;;15.84;48.74;101529.94;4875083;28;20628;-78
2022/04/11 08:03:48;;;;;;;6.18;2.20;;;15.90;99.90;;;14.71;50.01;101535.06;4868321;28;20034;-79
2022/04/11 08:06:17;;;;;;;10.93;2.55;;;15.20;99.90;;;13.03;52.42;101526.19;4904904;28;20057;-77
2022/04/11 08:08:51;;;;;;;8.88;2.28;;;14.20;99.90;;;11.83;54.52;101528.47;4856556;28;20074;-77
2022/04/11 08:11:19;;;;;;;10.75;3.28;;;13.10;99.90;;;11.02;57.29;101537.66;4903621;28;20435;-80
2022/04/11 08:13:46;;;;;;;8.43;1.88;;;12.40;99.90;;;10.50;58.54;101528.91;4933547;28;20027;-76
2022/04/11 08:16:12;;;;;;;6.18;1.80;;;11.90;99.90;;;10.02;60.67;101540.91;4884552;28;20105;-76
2022/04/11 08:18:44;;;;;;;4.22;1.70;;;11.30;99.90;;;9.57;60.69;101534.41;4901672;28;20046;-75
2022/04/11 08:21:10;;;;;;;5.15;1.48;;;10.80;99.90;;;8.88;61.06;101535.47;4887414;28;20153;-77
2022/04/11 08:23:36;;;;;;;10.57;1.83;;;10.30;99.90;;;8.57;63.59;101536.25;4891974;28;20619;-78
2022/04/11 08:26:03;;;;;;;12.35;2.00;;;10.00;99.90;;;8.57;64.79;101529.25;4917863;28;20453;-78
2022/04/11 08:28:29;;;;;;;7.75;1.70;;;10.10;99.90;;;9.09;64.06;101534.88;4894636;28;20038;-78
2022/04/11 08:30:59;;;;;;;7.18;2.22;;;10.00;99.90;;;8.67;64.67;101540.38;4915175;28;20037;-77
2022/04/11 08:33:25;;;;;;;3.90;2.08;;;9.70;99.90;;;8.15;65.19;101550.34;4901447;28;20033;-78
2022/04/11 08:35:52;;;;;;;3.88;1.10;;;9.70;99.90;;;7.37;69.35;101559.91;4874949;28;20467;-78
2022/04/11 08:38:18;;;;;;;5.57;1.38;;;8.80;99.90;;;7.01;72.26;101562.34;4917638;28;20850;-77
2022/04/11 08:40:46;;;;;;;4.03;1.10;;;8.60;99.90;;;6.86;74.57;101553.00;4928692;28;20023;-78
2022/04/11 08:43:19;;;;;;;5.35;1.10;;;8.40;99.90;;;6.98;74.97;101557.16;4911955;28;20030;-77
2022/04/11 08:45:45;;;;;;;2.78;1.10;;;8.20;99.90;;;6.73;76.46;101552.34;4949925;28;20039;-78
2022/04/11 08:48:12;;;;;;;7.47;1.45;;;8.30;99.90;;;7.29;76.49;101546.09;4974155;28;20053;-78
2022/04/11 08:50:42;;;;;;;5.35;1.55;;;8.30;99.90;;;7.27;76.04;101543.50;4897009;28;20038;-77
2022/04/11 08:53:08;;;;;;;7.57;1.35;;;8.50;99.90;;;7.71;76.07;101538.22;4907584;28;20034;-77
2022/04/11 08:55:34;;;;;;;6.13;1.48;;;8.90;99.90;;;8.05;73.72;101546.22;4937722;28;20525;-78
2022/04/11 08:58:00;;;;;;;6.88;1.58;;;8.90;99.90;;;7.88;73.79;101533.47;4942463;28;20113;-78
2022/04/11 09:00:28;;;;;;;4.75;1.27;;;8.80;99.90;;;7.64;74.09;101541.88;4913865;28;20415;-78
2022/04/11 09:02:58;;;;;;;5.00;1.50;;;8.90;99.90;;;7.66;74.34;101540.09;4931107;28;20037;-77
2022/04/11 09:05:27;;;;;;;9.50;2.17;;;8.80;99.90;;;7.55;75.26;101535.94;4945499;28;20376;-78
2022/04/11 09:07:55;;;;;;;8.45;1.48;;;8.70;99.90;;;7.40;76.10;101541.50;4934738;28;20050;-77
2022/04/11 09:10:26;;;;;;;7.18;1.25;;;8.60;99.90;;;7.26;74.57;101535.69;4914843;28;20027;-78
2022/04/11 09:12:56;;;;;;;3.55;1.20;;;8.50;99.90;;;7.12;73.32;101528.09;4937615;28;20031;-78
2022/04/11 09:15:23;;;;;;;6.68;1.70;;;8.30;99.90;;;6.85;72.43;101534.72;4897789;28;20073;-77
2022/04/11 09:17:57;;;;;;;4.65;1.30;;;8.20;99.90;;;6.77;73.05;101530.47;4947648;28;20054;-78
2022/04/11 09:20:32;;;;;;;6.25;1.55;;;8.10;99.90;;;6.57;73.91;101532.59;4922262;28;20030;-77
2022/04/11 09:22:59;;;;;;;8.55;1.60;;;8.10;99.90;;;6.85;74.73;101529.50;4890429;28;20070;-79
2022/04/11 09:25:30;;;;;;;5.32;1.45;;;8.10;99.90;;;7.16;75.09;101535.00;4910556;28;20050;-77
2022/04/11 09:28:12;;;;;;;5.75;1.30;;;8.50;99.90;;;7.87;74.28;101526.53;4930250;28;20047;-78
2022/04/11 09:30:44;;;;;;;8.05;1.70;;;8.90;99.90;;;8.21;70.95;101517.88;4912857;28;20213;-78
2022/04/11 09:33:12;;;;;;;5.68;1.02;;;9.20;99.90;;;8.62;68.99;101522.13;4952638;28;20460;-79
2022/04/11 09:35:45;;;;;;;4.53;1.25;;;9.70;99.90;;;9.45;68.13;101524.22;4949877;28;20106;-78
2022/04/11 09:38:20;;;;;;;6.05;0.90;;;10.20;99.90;;;10.04;67.31;101529.47;4910232;28;20562;-78
2022/04/11 09:40:56;;;;;;;3.03;0.70;;;10.80;99.90;;;10.55;63.16;101530.47;4943226;28;20130;-78
2022/04/11 09:43:33;;;;;;;2.75;0.70;;;11.20;99.90;;;10.65;58.65;101523.13;4930839;28;20032;-78
2022/04/11 09:46:03;;;;;;;3.22;0.85;;;11.40;99.90;;;10.71;58.28;101530.78;4930629;28;20034;-77
2022/04/11 09:48:38;;;;;;;6.00;1.00;;;11.40;99.90;;;10.62;57.99;101518.78;4938544;28;21156;-78
2022/04/11 09:51:13;;;;;;;4.25;0.80;;;11.60;99.90;;;10.95;59.92;101530.84;4903711;28;20055;-78
2022/04/11 09:53:41;;;;;;;4.95;0.90;;;11.80;99.90;;;11.09;58.74;101536.50;4919293;28;20026;-78
2022/04/11 09:56:10;;;;;;;2.90;0.70;;;11.80;99.90;;;10.93;56.84;101530.03;4912373;28;20046;-78
2022/04/11 09:58:41;;;;;;;3.75;0.90;;;11.80;99.90;;;10.86;57.80;101540.81;4903936;28;20057;-77
2022/04/11 10:01:08;;;;;;;5.97;1.00;;;11.80;99.90;;;10.98;57.45;101551.84;4901310;28;20029;-78
2022/04/11 10:03:36;;;;;;;4.75;1.08;;;11.80;99.90;;;10.86;58.66;101538.19;4915028;28;20649;-78
2022/04/11 10:06:03;;;;;;;3.22;0.73;;;11.90;99.90;;;11.17;58.11;101539.72;4895615;28;20163;-78
2022/04/11 10:08:31;;;;;;;6.13;1.00;;;12.10;99.90;;;11.56;59.01;101543.59;4931757;28;20039;-78
2022/04/11 10:10:59;;;;;;;5.82;0.90;;;12.30;99.90;;;11.80;56.44;101547.06;4931564;28;20041;-78
2022/04/11 10:13:25;;;;;;;7.00;1.15;;;12.50;99.90;;;11.82;56.59;101534.69;4894033;28;20077;-78
2022/04/11 10:15:51;;;;;;;5.30;1.42;;;12.50;99.90;;;11.64;55.53;101536.22;4905570;28;20049;-78
2022/04/11 10:18:27;;;;;;;5.82;1.13;;;12.50;99.90;;;11.51;56.51;101541.09;4871286;28;20035;-78
2022/04/11 10:20:59;;;;;;;2.65;0.90;;;12.50;99.90;;;11.48;56.33;101541.25;4925262;28;20097;-78
2022/04/11 10:23:45;;;;;;;2.92;0.77;;;12.20;99.90;;;10.77;55.52;101530.59;4938202;28;20507;-78